createdAt,value
2019-05-06T00:15:04.114Z,77.39
2019-05-06T00:17:35.097Z,76.96
2019-05-06T00:20:06.644Z,77.62
2019-05-06T00:22:36.606Z,77.51
2019-05-06T00:25:11.471Z,76.95
2019-05-06T00:27:44.156Z,77.93
2019-05-06T00:30:14.956Z,78.14
2019-05-06T00:32:44.929Z,78.42
2019-05-06T00:35:14.957Z,78.68
2019-05-06T00:37:50.610Z,78.31
2019-05-06T00:40:24.305Z,78.32
2019-05-06T00:42:58.481Z,78.65
2019-05-06T00:45:28.583Z,78.48
2019-05-06T00:47:58.608Z,80.22
2019-05-06T00:50:28.579Z,80.36
2019-05-06T00:53:00.160Z,82.55
2019-05-06T00:55:30.199Z,80.23
2019-05-06T00:58:00.227Z,80.56
2019-05-06T01:00:33.711Z,80.00
2019-05-06T01:03:04.364Z,80.74
2019-05-06T01:05:34.516Z,80.14
2019-05-06T01:08:04.861Z,79.63
2019-05-06T01:10:34.897Z,80.48
2019-05-06T01:13:09.639Z,82.72
2019-05-06T01:15:39.658Z,82.88
2019-05-06T01:18:09.699Z,81.96
2019-05-06T01:20:39.705Z,81.44
2019-05-06T01:23:09.670Z,80.13
2019-05-06T01:25:39.693Z,79.03
2019-05-06T01:28:09.669Z,80.54
2019-05-06T01:30:39.727Z,79.64
2019-05-06T01:33:09.732Z,80.04
2019-05-06T01:35:39.701Z,81.70
2019-05-06T01:38:20.505Z,81.14
2019-05-06T01:41:08.669Z,79.62
2019-05-06T01:43:40.313Z,80.53
2019-05-06T01:46:10.348Z,81.04
2019-05-06T01:48:49.707Z,81.37
2019-05-06T01:51:21.245Z,80.56
2019-05-06T01:53:51.482Z,80.49
2019-05-06T01:56:21.514Z,79.61
2019-05-06T01:58:53.439Z,80.19
2019-05-06T02:01:25.096Z,79.03
2019-05-06T02:03:55.079Z,79.81
2019-05-06T02:06:25.188Z,80.18
2019-05-06T02:08:55.298Z,79.93
2019-05-06T02:11:25.699Z,83.17
2019-05-06T02:13:55.685Z,82.14
2019-05-06T02:16:25.702Z,81.94
2019-05-06T02:19:04.225Z,82.40
2019-05-06T02:21:35.959Z,81.67
2019-05-06T02:24:19.640Z,81.03
2019-05-06T02:26:49.646Z,82.66
2019-05-06T02:29:21.266Z,81.36
2019-05-06T02:32:14.771Z,80.64
2019-05-06T02:34:37.803Z,81.57
2019-05-06T02:37:14.755Z,80.81
2019-05-06T02:39:44.065Z,80.58
2019-05-06T02:42:14.074Z,81.03
2019-05-06T02:44:44.500Z,82.09
2019-05-06T02:47:16.255Z,79.95
2019-05-06T02:49:53.721Z,79.29
2019-05-06T02:52:23.743Z,78.64
2019-05-06T02:54:53.928Z,78.87
2019-05-06T02:57:24.210Z,78.59
2019-05-06T02:59:55.351Z,78.64
2019-05-06T03:02:37.922Z,78.81
2019-05-06T03:04:57.527Z,78.90
2019-05-06T03:07:27.493Z,78.67
2019-05-06T03:09:57.513Z,78.61
2019-05-06T03:12:27.483Z,79.03
2019-05-06T03:14:57.489Z,79.49
2019-05-06T03:17:27.472Z,78.96
2019-05-06T03:19:59.181Z,78.71
2019-05-06T03:22:43.703Z,78.35
2019-05-06T03:25:15.823Z,78.63
2019-05-06T03:27:46.931Z,78.34
2019-05-06T03:30:17.527Z,78.57
2019-05-06T03:33:20.127Z,80.62
2019-05-06T03:35:36.431Z,79.54
2019-05-06T03:37:53.291Z,78.78
2019-05-06T03:40:23.198Z,78.85
2019-05-06T03:42:53.972Z,79.05
2019-05-06T03:45:29.744Z,79.11
2019-05-06T03:48:05.417Z,78.65
2019-05-06T03:50:33.703Z,78.50
2019-05-06T03:53:04.382Z,78.53
2019-05-06T03:55:34.899Z,78.99
2019-05-06T03:58:04.949Z,78.23
2019-05-06T04:00:36.393Z,78.66
2019-05-06T04:03:06.393Z,78.30
2019-05-06T04:05:36.701Z,78.44
2019-05-06T04:08:06.987Z,78.92
2019-05-06T04:10:37.819Z,77.88
2019-05-06T04:13:13.278Z,78.58
2019-05-06T04:15:59.990Z,78.20
2019-05-06T04:18:44.019Z,78.70
2019-05-06T04:21:19.149Z,80.50
2019-05-06T04:24:09.927Z,79.28
2019-05-06T04:26:46.477Z,79.34
2019-05-06T04:29:16.859Z,79.56
2019-05-06T04:31:46.986Z,79.27
2019-05-06T04:34:19.829Z,78.78
2019-05-06T04:36:53.081Z,79.09
2019-05-06T04:39:23.367Z,78.75
2019-05-06T04:41:54.126Z,79.12
2019-05-06T04:44:25.309Z,78.78
2019-05-06T04:46:55.832Z,78.18
2019-05-06T04:49:25.864Z,78.75
2019-05-06T04:51:55.978Z,78.58
2019-05-06T04:54:26.576Z,78.25
2019-05-06T04:56:56.913Z,78.73
2019-05-06T04:59:26.922Z,78.56
2019-05-06T05:01:56.913Z,78.49
2019-05-06T05:04:32.267Z,78.40
2019-05-06T05:06:58.580Z,78.92
2019-05-06T05:09:32.416Z,78.42
2019-05-06T05:12:06.410Z,78.76
2019-05-06T05:14:42.334Z,78.42
2019-05-06T05:17:16.862Z,78.35
2019-05-06T05:19:46.900Z,78.54
2019-05-06T05:22:16.902Z,78.27
2019-05-06T05:24:46.892Z,78.41
2019-05-06T05:27:16.938Z,78.21
2019-05-06T05:29:47.360Z,78.29
2019-05-06T05:32:17.536Z,77.32
2019-05-06T05:34:47.654Z,77.36
2019-05-06T05:37:17.745Z,78.04
2019-05-06T05:39:47.901Z,76.94
2019-05-06T05:42:22.053Z,76.65
2019-05-06T05:44:52.903Z,76.90
2019-05-06T05:47:22.890Z,76.97
2019-05-06T05:50:03.508Z,76.40
2019-05-06T05:52:36.248Z,76.15
2019-05-06T05:55:06.495Z,76.65
2019-05-06T05:57:36.650Z,76.04
2019-05-06T06:00:07.180Z,75.73
2019-05-06T06:02:37.268Z,74.92
2019-05-06T06:05:07.991Z,75.09
2019-05-06T06:07:38.061Z,74.86
2019-05-06T06:10:10.307Z,75.56
2019-05-06T06:12:42.796Z,74.35
2019-05-06T06:15:14.341Z,75.91
2019-05-06T06:17:58.514Z,75.16
2019-05-06T06:20:46.294Z,74.70
2019-05-06T06:23:19.055Z,73.51
2019-05-06T06:25:50.097Z,74.73
2019-05-06T06:28:22.683Z,73.84
2019-05-06T06:30:56.875Z,74.34
2019-05-06T06:33:27.050Z,74.30
2019-05-06T06:35:58.756Z,75.12
2019-05-06T06:38:46.777Z,73.21
2019-05-06T06:41:16.883Z,72.32
2019-05-06T06:43:48.672Z,74.65
2019-05-06T06:46:18.727Z,73.16
2019-05-06T06:48:52.614Z,75.60
2019-05-06T06:51:23.462Z,72.32
2019-05-06T06:53:53.724Z,74.11
2019-05-06T06:56:28.104Z,74.54
2019-05-06T06:59:02.669Z,74.42
2019-05-06T07:01:42.334Z,73.40
2019-05-06T07:04:14.203Z,73.00
2019-05-06T07:06:46.365Z,72.80
2019-05-06T07:09:16.425Z,70.44
2019-05-06T07:11:46.408Z,72.39
2019-05-06T07:14:16.386Z,69.49
2019-05-06T07:16:46.385Z,70.66
2019-05-06T07:19:18.106Z,71.01
2019-05-06T07:21:52.226Z,70.51
2019-05-06T07:24:22.922Z,68.88
2019-05-06T07:26:54.874Z,66.81
2019-05-06T07:29:26.780Z,68.90
2019-05-06T07:31:56.668Z,68.96
2019-05-06T07:34:26.641Z,69.54
2019-05-06T07:36:56.656Z,69.24
2019-05-06T07:39:26.638Z,69.30
2019-05-06T07:42:02.438Z,68.66
2019-05-06T07:44:36.733Z,68.56
2019-05-06T07:47:15.755Z,68.18
2019-05-06T07:49:47.057Z,69.53
2019-05-06T07:52:17.476Z,69.65
2019-05-06T07:54:47.674Z,68.86
2019-05-06T07:57:17.730Z,67.48
2019-05-06T07:59:47.775Z,68.21
2019-05-06T08:02:17.897Z,68.05
2019-05-06T08:04:48.029Z,67.86
2019-05-06T08:07:17.979Z,68.34
2019-05-06T08:09:48.031Z,66.67
2019-05-06T08:12:18.006Z,66.34
2019-05-06T08:14:48.014Z,65.90
2019-05-06T08:17:22.565Z,67.12
2019-05-06T08:19:53.040Z,67.14
2019-05-06T08:22:42.273Z,66.74
2019-05-06T08:25:12.480Z,65.97
2019-05-06T08:27:42.730Z,65.88
2019-05-06T08:30:13.366Z,64.09
2019-05-06T08:32:43.496Z,61.80
2019-05-06T08:35:15.247Z,65.10
2019-05-06T08:37:46.587Z,63.30
2019-05-06T08:40:17.106Z,63.22
2019-05-06T08:42:47.079Z,64.20
2019-05-06T08:45:17.222Z,61.80
2019-05-06T08:47:47.177Z,63.71
2019-05-06T08:50:21.864Z,60.14
2019-05-06T08:53:00.473Z,62.42
2019-05-06T08:55:35.022Z,59.49
2019-05-06T08:58:05.089Z,56.99
2019-05-06T09:00:36.777Z,57.99
2019-05-06T09:03:06.912Z,56.61
2019-05-06T09:05:36.902Z,52.98
2019-05-06T09:08:06.986Z,52.22
2019-05-06T09:10:36.957Z,53.02
2019-05-06T09:13:08.047Z,52.32
2019-05-06T09:15:38.033Z,54.42
2019-05-06T09:18:08.083Z,53.79
2019-05-06T09:20:38.082Z,55.36
2019-05-06T09:23:08.036Z,54.98
2019-05-06T09:25:38.044Z,52.08
2019-05-06T09:28:09.675Z,52.99
2019-05-06T09:30:52.522Z,51.23
2019-05-06T09:33:24.184Z,52.45
2019-05-06T09:35:54.240Z,50.43
2019-05-06T09:38:24.219Z,52.53
2019-05-06T09:40:54.194Z,51.23
2019-05-06T09:43:24.204Z,52.49
2019-05-06T09:45:54.205Z,52.54
2019-05-06T09:48:28.266Z,50.79
2019-05-06T09:50:58.240Z,51.70
2019-05-06T09:53:33.515Z,48.92
2019-05-06T09:56:05.358Z,46.82
2019-05-06T09:58:37.026Z,47.81
2019-05-06T10:01:07.326Z,47.73
2019-05-06T10:03:37.446Z,49.75
2019-05-06T10:06:07.439Z,45.07
2019-05-06T10:08:37.487Z,49.45
2019-05-06T10:11:07.580Z,56.60
2019-05-06T10:13:37.771Z,58.24
2019-05-06T10:16:08.090Z,61.37
2019-05-06T10:18:38.128Z,60.76
2019-05-06T10:21:08.199Z,60.76
2019-05-06T10:23:38.252Z,62.26
2019-05-06T10:26:08.457Z,62.34
2019-05-06T10:28:48.866Z,62.51
2019-05-06T10:31:19.176Z,64.91
2019-05-06T10:34:07.178Z,66.27
2019-05-06T10:36:43.053Z,67.78
2019-05-06T10:39:15.184Z,68.41
2019-05-06T10:41:48.227Z,68.42
2019-05-06T10:44:24.148Z,68.52
2019-05-06T10:46:54.116Z,70.61
2019-05-06T10:49:24.140Z,69.55
2019-05-06T10:52:14.731Z,69.68
2019-05-06T10:54:44.805Z,70.79
2019-05-06T10:57:25.196Z,69.24
2019-05-06T10:59:55.248Z,71.09
2019-05-06T11:02:33.001Z,71.12
2019-05-06T11:05:03.631Z,68.87
2019-05-06T11:07:35.429Z,69.74
2019-05-06T11:10:06.284Z,67.10
2019-05-06T11:12:36.287Z,68.09
2019-05-06T11:15:06.966Z,67.44
2019-05-06T11:17:37.015Z,69.70
2019-05-06T11:20:10.356Z,67.37
2019-05-06T11:22:39.091Z,66.20
2019-05-06T11:25:09.422Z,66.44
2019-05-06T11:27:41.861Z,67.49
2019-05-06T11:30:13.314Z,65.69
2019-05-06T11:32:47.642Z,66.98
2019-05-06T11:35:25.084Z,66.31
2019-05-06T11:37:59.633Z,67.33
2019-05-06T11:40:29.621Z,68.85
2019-05-06T11:42:59.597Z,61.32
2019-05-06T11:45:29.658Z,66.33
2019-05-06T11:47:59.638Z,69.77
2019-05-06T11:50:29.613Z,67.68
2019-05-06T11:53:02.305Z,66.93
2019-05-06T11:55:38.046Z,66.65
2019-05-06T11:58:03.715Z,66.86
2019-05-06T12:00:35.925Z,66.76
2019-05-06T12:03:06.091Z,65.47
2019-05-06T12:05:36.131Z,63.76
2019-05-06T12:08:08.265Z,67.66
2019-05-06T12:10:37.850Z,67.14
2019-05-06T12:13:07.911Z,67.44
2019-05-06T12:15:37.992Z,67.01
2019-05-06T12:18:08.765Z,68.17
2019-05-06T12:20:38.730Z,70.52
2019-05-06T12:23:08.730Z,71.14
2019-05-06T12:25:38.707Z,73.61
2019-05-06T12:28:08.697Z,72.29
2019-05-06T12:30:38.842Z,72.68
2019-05-06T12:33:12.810Z,73.72
2019-05-06T12:35:43.842Z,73.94
2019-05-06T12:38:26.542Z,72.45
2019-05-06T12:40:47.457Z,69.69
2019-05-06T12:43:25.134Z,69.36
2019-05-06T12:46:03.586Z,69.59
2019-05-06T12:48:40.724Z,66.50
2019-05-06T12:51:10.813Z,68.26
2019-05-06T12:53:42.796Z,68.00
2019-05-06T12:56:12.545Z,66.79
2019-05-06T12:58:44.286Z,67.00
2019-05-06T13:01:14.674Z,65.27
2019-05-06T13:03:44.710Z,67.93
2019-05-06T13:06:14.736Z,65.97
2019-05-06T13:08:57.257Z,65.09
2019-05-06T13:11:16.414Z,63.67
2019-05-06T13:13:59.723Z,64.22
2019-05-06T13:16:19.451Z,63.64
2019-05-06T13:18:51.750Z,63.26
2019-05-06T13:21:22.328Z,62.36
2019-05-06T13:23:57.212Z,62.11
2019-05-06T13:26:27.212Z,61.56
2019-05-06T13:28:58.815Z,63.38
2019-05-06T13:31:28.870Z,63.06
2019-05-06T13:34:06.553Z,62.08
2019-05-06T13:36:36.765Z,59.96
2019-05-06T13:39:14.401Z,60.37
2019-05-06T13:41:39.244Z,63.42
2019-05-06T13:44:16.317Z,59.76
2019-05-06T13:46:48.017Z,56.71
2019-05-06T13:49:32.040Z,58.36
2019-05-06T13:52:06.695Z,57.09
2019-05-06T13:54:36.874Z,56.07
2019-05-06T13:57:06.953Z,56.92
2019-05-06T13:59:37.373Z,56.84
2019-05-06T14:02:17.951Z,57.55
2019-05-06T14:04:47.951Z,57.37
2019-05-06T14:07:17.998Z,55.34
2019-05-06T14:09:48.035Z,60.51
2019-05-06T14:12:18.076Z,68.06
2019-05-06T14:14:48.134Z,72.15
2019-05-06T14:17:18.108Z,72.98
2019-05-06T14:19:48.131Z,74.02
2019-05-06T14:22:18.123Z,75.21
2019-05-06T14:24:49.748Z,76.90
2019-05-06T14:27:22.131Z,76.36
2019-05-06T14:29:59.655Z,76.87
2019-05-06T14:32:29.684Z,78.36
2019-05-06T14:34:59.689Z,78.02
2019-05-06T14:37:29.681Z,78.42
2019-05-06T14:40:01.540Z,78.45
2019-05-06T14:42:33.026Z,78.90
2019-05-06T14:45:04.520Z,78.36
2019-05-06T14:47:36.138Z,76.91
2019-05-06T14:50:08.488Z,75.64
2019-05-06T14:52:39.048Z,76.46
2019-05-06T14:55:12.602Z,77.17
2019-05-06T14:57:42.929Z,76.24
2019-05-06T15:00:15.075Z,77.63
2019-05-06T15:02:45.062Z,78.90
2019-05-06T15:05:15.403Z,79.07
2019-05-06T15:07:45.388Z,78.14
2019-05-06T15:10:22.222Z,78.97
2019-05-06T15:12:47.203Z,79.66
2019-05-06T15:15:17.324Z,79.94
2019-05-06T15:17:47.363Z,80.08
2019-05-06T15:20:17.530Z,81.57
2019-05-06T15:22:47.518Z,80.16
2019-05-06T15:25:17.511Z,81.29
2019-05-06T15:27:47.544Z,80.86
2019-05-06T15:30:34.400Z,80.60
2019-05-06T15:33:06.191Z,81.69
2019-05-06T15:35:54.034Z,80.48
2019-05-06T15:38:29.966Z,80.78
2019-05-06T15:41:00.124Z,78.92
2019-05-06T15:43:30.172Z,80.77
2019-05-06T15:46:00.153Z,80.53
2019-05-06T15:48:30.193Z,80.00
2019-05-06T15:51:01.985Z,79.55
2019-05-06T15:53:32.872Z,78.79
2019-05-06T15:56:03.285Z,80.01
2019-05-06T15:58:33.327Z,78.29
2019-05-06T16:01:03.435Z,79.22
2019-05-06T16:03:33.691Z,79.84
2019-05-06T16:06:03.647Z,80.03
2019-05-06T16:08:33.715Z,82.59
2019-05-06T16:11:03.698Z,81.18
2019-05-06T16:13:33.796Z,79.23
2019-05-06T16:16:06.874Z,77.45
2019-05-06T16:18:35.547Z,78.14
2019-05-06T16:21:05.516Z,79.38
2019-05-06T16:23:37.143Z,78.85
2019-05-06T16:26:07.178Z,78.01
2019-05-06T16:28:37.156Z,77.95
2019-05-06T16:31:07.208Z,76.95
2019-05-06T16:33:37.255Z,77.27
2019-05-06T16:36:07.259Z,77.82
2019-05-06T16:38:37.324Z,77.79
2019-05-06T16:41:12.262Z,79.00
2019-05-06T16:43:39.046Z,77.99
2019-05-06T16:46:09.159Z,79.16
2019-05-06T16:48:39.148Z,78.75
2019-05-06T16:51:09.135Z,79.10
2019-05-06T16:53:39.182Z,80.39
2019-05-06T16:56:12.986Z,79.41
2019-05-06T16:58:52.375Z,79.01
2019-05-06T17:01:22.184Z,79.76
2019-05-06T17:03:56.863Z,80.30
2019-05-06T17:06:34.386Z,80.61
2019-05-06T17:09:17.355Z,80.22
2019-05-06T17:11:38.824Z,80.08
2019-05-06T17:14:08.833Z,79.52
2019-05-06T17:16:38.878Z,80.36
2019-05-06T17:19:08.853Z,78.57
2019-05-06T17:21:38.881Z,79.48
2019-05-06T17:24:10.005Z,81.93
2019-05-06T17:26:42.439Z,81.35
2019-05-06T17:29:29.539Z,80.16
2019-05-06T17:32:02.505Z,78.73
2019-05-06T17:34:35.276Z,78.89
2019-05-06T17:37:09.896Z,76.96
2019-05-06T17:39:39.931Z,76.93
2019-05-06T17:42:09.923Z,75.96
2019-05-06T17:44:39.970Z,74.83
2019-05-06T17:47:17.190Z,74.17
2019-05-06T17:49:47.174Z,75.07
2019-05-06T17:52:22.345Z,73.30
2019-05-06T17:54:52.930Z,70.17
2019-05-06T17:57:23.030Z,70.68
2019-05-06T17:59:53.090Z,70.58
2019-05-06T18:02:24.702Z,69.19
2019-05-06T18:04:54.790Z,70.26
2019-05-06T18:07:24.754Z,71.20
2019-05-06T18:09:54.746Z,72.10
2019-05-06T18:12:24.768Z,71.18
2019-05-06T18:14:54.749Z,69.04
2019-05-06T18:17:24.787Z,73.67
2019-05-06T18:19:54.787Z,73.92
2019-05-06T18:22:24.789Z,73.48
2019-05-06T18:24:54.833Z,72.18
2019-05-06T18:27:24.873Z,73.38
2019-05-06T18:29:54.856Z,69.90
2019-05-06T18:32:24.841Z,69.27
2019-05-06T18:34:54.830Z,69.92
2019-05-06T18:37:24.811Z,69.94
2019-05-06T18:39:54.921Z,69.74
2019-05-06T18:42:24.907Z,69.50
2019-05-06T18:44:54.900Z,70.09
2019-05-06T18:47:24.894Z,70.82
2019-05-06T18:49:54.876Z,69.66
2019-05-06T18:52:24.908Z,69.40
2019-05-06T18:54:54.877Z,70.47
2019-05-06T18:57:24.888Z,71.79
2019-05-06T18:59:54.914Z,69.81
2019-05-06T19:02:26.835Z,70.51
2019-05-06T19:05:04.258Z,69.27
2019-05-06T19:07:34.282Z,71.33
2019-05-06T19:10:13.228Z,69.38
2019-05-06T19:12:43.201Z,71.89
2019-05-06T19:15:13.527Z,70.75
2019-05-06T19:17:44.378Z,70.49
2019-05-06T19:20:14.612Z,69.89
2019-05-06T19:22:44.622Z,69.40
2019-05-06T19:25:14.751Z,69.61
2019-05-06T19:27:44.935Z,70.67
2019-05-06T19:30:15.976Z,70.70
2019-05-06T19:32:46.465Z,71.15
2019-05-06T19:35:16.465Z,70.75
2019-05-06T19:37:46.518Z,70.95
2019-05-06T19:40:16.499Z,71.83
2019-05-06T19:42:49.913Z,71.49
2019-05-06T19:45:18.472Z,72.30
2019-05-06T19:47:48.499Z,72.28
2019-05-06T19:50:21.205Z,72.11
2019-05-06T19:52:52.337Z,72.20
2019-05-06T19:55:23.209Z,73.07
2019-05-06T19:57:53.187Z,72.53
2019-05-06T20:00:24.491Z,72.14
2019-05-06T20:02:54.463Z,72.71
2019-05-06T20:05:28.825Z,73.14
2019-05-06T20:08:02.722Z,73.02
2019-05-06T20:10:50.351Z,74.18
2019-05-06T20:13:23.072Z,73.33
2019-05-06T20:15:52.323Z,74.01
2019-05-06T20:18:22.400Z,73.37
2019-05-06T20:20:52.926Z,73.83
2019-05-06T20:23:23.319Z,74.13
2019-05-06T20:25:53.477Z,74.05
2019-05-06T20:28:23.563Z,75.14
2019-05-06T20:30:55.313Z,75.04
2019-05-06T20:33:25.404Z,74.35
2019-05-06T20:35:55.388Z,74.42
2019-05-06T20:38:25.419Z,75.04
2019-05-06T20:40:55.405Z,75.40
2019-05-06T20:43:26.892Z,74.70
2019-05-06T20:45:56.884Z,74.90
2019-05-06T20:48:26.866Z,75.33
2019-05-06T20:50:56.853Z,76.26
2019-05-06T20:53:26.857Z,77.58
2019-05-06T20:55:56.835Z,77.17
2019-05-06T20:58:26.912Z,77.20
2019-05-06T21:00:56.929Z,77.30
2019-05-06T21:03:26.908Z,78.47
2019-05-06T21:05:56.995Z,78.44
2019-05-06T21:08:26.990Z,79.07
2019-05-06T21:10:57.095Z,79.52
2019-05-06T21:13:32.993Z,78.02
2019-05-06T21:15:58.793Z,77.26
2019-05-06T21:18:28.772Z,78.90
2019-05-06T21:20:58.766Z,78.83
2019-05-06T21:23:31.960Z,79.20
2019-05-06T21:26:03.272Z,78.52
2019-05-06T21:28:33.457Z,77.83
2019-05-06T21:31:03.450Z,78.54
2019-05-06T21:33:33.476Z,79.01
2019-05-06T21:36:04.347Z,78.10
2019-05-06T21:38:34.333Z,78.15
2019-05-06T21:41:04.347Z,78.53
2019-05-06T21:43:45.840Z,78.50
2019-05-06T21:46:06.124Z,77.38
2019-05-06T21:48:36.119Z,75.76
2019-05-06T21:51:06.113Z,75.92
2019-05-06T21:53:36.154Z,75.82
2019-05-06T21:56:06.196Z,75.54
2019-05-06T21:58:36.193Z,75.05
2019-05-06T22:01:08.281Z,74.77
2019-05-06T22:03:39.904Z,75.12
2019-05-06T22:06:09.903Z,74.52
2019-05-06T22:08:42.230Z,75.60
2019-05-06T22:11:11.975Z,74.02
2019-05-06T22:13:42.555Z,74.19
2019-05-06T22:16:12.836Z,73.80
2019-05-06T22:18:45.498Z,73.86
2019-05-06T22:21:19.597Z,74.32
2019-05-06T22:23:54.240Z,73.51
2019-05-06T22:26:24.955Z,73.07
2019-05-06T22:28:55.307Z,73.96
2019-05-06T22:31:25.847Z,74.44
2019-05-06T22:33:56.117Z,73.96
2019-05-06T22:36:26.160Z,74.45
2019-05-06T22:38:56.159Z,74.50
2019-05-06T22:41:26.185Z,74.92
2019-05-06T22:43:56.292Z,75.66
2019-05-06T22:46:26.337Z,75.66
2019-05-06T22:48:56.397Z,75.74
2019-05-06T22:51:26.445Z,75.18
2019-05-06T22:53:56.434Z,75.33
2019-05-06T22:56:26.473Z,77.24
2019-05-06T22:58:56.445Z,77.21
2019-05-06T23:01:32.488Z,78.71
2019-05-06T23:04:03.864Z,78.06
2019-05-06T23:06:33.956Z,79.21
2019-05-06T23:09:05.522Z,78.30
2019-05-06T23:11:38.019Z,78.90
2019-05-06T23:14:08.074Z,78.84
2019-05-06T23:16:38.063Z,78.96
2019-05-06T23:19:08.043Z,79.22
2019-05-06T23:21:38.050Z,78.61
2019-05-06T23:24:08.100Z,78.31
2019-05-06T23:26:38.296Z,79.04
2019-05-06T23:29:08.287Z,78.46
2019-05-06T23:31:38.284Z,79.11
2019-05-06T23:34:08.331Z,78.88
2019-05-06T23:36:58.843Z,80.13
2019-05-06T23:40:06.747Z,81.66
2019-05-06T23:43:13.101Z,82.07
2019-05-06T23:46:19.551Z,81.39
2019-05-06T23:49:25.343Z,81.95
2019-05-06T23:52:32.046Z,82.26
2019-05-06T23:55:39.368Z,83.45
2019-05-06T23:58:08.271Z,81.25
